Albertville, Wisconsin
Current Conditions -  °F | °C
As of 9:15 AM on Thursday 23 Oct 2014 (Local Time) from KLUM Reporting Station
Haze Haze  
Wind Chill:   Ceiling: 700
Heat Index:   Visibility: 3mi
Dew Point:   Wind: 3mph
Humidity: 97%   Direction: 120°ESE
Pressure: 30.03"   Gusts: NA
Location:  45.0099°N, 91.7075°W
Report Text: KLUM 231415Z AUTO 12003KT 3SM BR BKN007 OVC010 09/09 A3003 RMK AO2 T00910087
Loading
Personal Weather Stations






























Interactive Weather Map
Tropical Storm Tracking
New forecast layout! Learn more

10-Day Weather Forecast

Advertisements
Track Severe Weather on mobile